Terminal Aerodrome Forecast
Issued by NWS Melbourne, FL

Home | Current Version | Previous Version | Text Only | Print | Product List | Glossary On
Versions: 1 2 3 4 5 6 7 8 9 10 11 12 13 14
886
FTUS42 KMLB 092334
TAFMLB
TAF
KMLB 092334Z 1000/1024 25011KT P6SM SCT050 BKN250
     FM100600 28011G18KT P6SM FEW050 SCT250
     FM101400 30015G22KT P6SM SKC=

USA.gov is the U.S. government's official web portal to all federal, state and local government web resources and services.